createdAt,value
2018-12-27T00:02:13.908Z,23.23
2018-12-27T00:04:54.545Z,18.17
2018-12-27T00:07:36.110Z,18.77
2018-12-27T00:10:16.961Z,18.70
2018-12-27T00:12:58.379Z,18.57
2018-12-27T00:15:39.202Z,19.65
2018-12-27T00:18:20.663Z,16.03
2018-12-27T00:21:01.935Z,27.93
2018-12-27T00:23:42.718Z,26.50
2018-12-27T00:26:24.043Z,24.72
2018-12-27T00:29:05.102Z,26.97
2018-12-27T00:31:46.615Z,27.62
2018-12-27T00:34:27.594Z,29.55
2018-12-27T00:37:08.963Z,30.52
2018-12-27T00:39:49.636Z,30.57
2018-12-27T00:42:30.275Z,32.78
2018-12-27T00:45:11.531Z,27.10
2018-12-27T00:47:52.225Z,27.30
2018-12-27T00:50:32.859Z,30.77
2018-12-27T00:53:13.828Z,27.27
2018-12-27T00:55:55.350Z,24.45
2018-12-27T00:58:36.639Z,35.20
2018-12-27T01:01:16.334Z,26.62
2018-12-27T01:04:04.834Z,29.18
2018-12-27T01:06:53.351Z,29.52
2018-12-27T01:09:41.871Z,30.02
2018-12-27T01:12:30.439Z,33.40
2018-12-27T01:15:18.871Z,34.77
2018-12-27T01:18:07.364Z,27.07
2018-12-27T01:20:55.879Z,26.10
2018-12-27T01:23:44.389Z,27.95
2018-12-27T01:26:32.899Z,18.50
2018-12-27T01:29:21.390Z,20.37
2018-12-27T01:32:09.912Z,18.62
2018-12-27T01:34:58.407Z,29.57
2018-12-27T01:37:46.987Z,30.10
2018-12-27T01:40:35.491Z,27.97
2018-12-27T01:43:23.996Z,34.38
2018-12-27T01:46:12.511Z,30.08
2018-12-27T01:49:01.013Z,26.55
2018-12-27T01:51:49.526Z,30.50
2018-12-27T01:54:38.007Z,28.30
2018-12-27T01:57:26.529Z,41.55
2018-12-27T02:00:07.311Z,41.68
2018-12-27T02:02:48.807Z,35.68
2018-12-27T02:05:29.536Z,40.13
2018-12-27T02:08:10.215Z,45.40
2018-12-27T02:10:51.752Z,40.70
2018-12-27T02:13:32.383Z,43.13
2018-12-27T02:16:13.059Z,43.50
2018-12-27T02:18:54.322Z,34.95
2018-12-27T02:21:35.702Z,41.33
2018-12-27T02:24:17.211Z,40.63
2018-12-27T02:26:58.035Z,42.33
2018-12-27T02:29:38.804Z,36.77
2018-12-27T02:32:19.521Z,48.50
2018-12-27T02:35:00.574Z,48.57
2018-12-27T02:37:41.420Z,63.93
2018-12-27T02:40:22.208Z,41.80
2018-12-27T02:43:03.703Z,59.08
2018-12-27T02:45:45.123Z,49.93
2018-12-27T02:48:26.099Z,60.20
2018-12-27T02:51:06.882Z,46.40
2018-12-27T02:53:47.591Z,48.52
2018-12-27T02:56:28.314Z,56.83
2018-12-27T02:59:08.979Z,47.40
2018-12-27T03:01:50.398Z,59.55
2018-12-27T03:04:31.998Z,61.20
2018-12-27T03:07:12.634Z,59.30
2018-12-27T03:09:53.405Z,60.12
2018-12-27T03:12:34.868Z,60.65
2018-12-27T03:15:15.555Z,55.40
2018-12-27T03:17:56.723Z,56.55
2018-12-27T03:20:37.595Z,50.58
2018-12-27T03:23:19.085Z,52.93
2018-12-27T03:26:00.427Z,54.23
2018-12-27T03:28:41.203Z,44.65
2018-12-27T03:31:22.448Z,57.20
2018-12-27T03:34:03.708Z,59.05
2018-12-27T03:36:44.401Z,42.13
2018-12-27T03:39:25.768Z,50.33
2018-12-27T03:42:07.236Z,53.87
2018-12-27T03:44:48.796Z,57.20
2018-12-27T03:47:30.282Z,60.05
2018-12-27T03:50:12.903Z,59.55
2018-12-27T03:52:52.469Z,40.23
2018-12-27T03:55:40.989Z,44.00
2018-12-27T03:58:29.510Z,45.17
2018-12-27T04:01:18.044Z,62.03
2018-12-27T04:04:06.540Z,55.63
2018-12-27T04:06:55.175Z,53.27
2018-12-27T04:09:43.667Z,45.15
2018-12-27T04:12:32.186Z,61.75
2018-12-27T04:15:20.649Z,60.75
2018-12-27T04:18:09.063Z,61.80
2018-12-27T04:20:57.558Z,54.67
2018-12-27T04:23:46.227Z,67.67
2018-12-27T04:26:34.670Z,58.05
2018-12-27T04:29:23.093Z,74.05
2018-12-27T04:32:11.643Z,65.92
2018-12-27T04:35:00.237Z,94.32
2018-12-27T04:37:50.207Z,69.77
2018-12-27T04:40:38.638Z,61.23
2018-12-27T04:43:27.091Z,71.42
2018-12-27T04:46:15.523Z,68.15
2018-12-27T04:49:03.958Z,56.42
2018-12-27T04:51:52.398Z,55.95
2018-12-27T04:54:40.833Z,46.02
2018-12-27T04:57:29.271Z,46.13
2018-12-27T05:00:10.331Z,41.70
2018-12-27T05:02:51.824Z,47.43
2018-12-27T05:05:32.743Z,79.30
2018-12-27T05:08:13.511Z,59.98
2018-12-27T05:10:54.951Z,56.13
2018-12-27T05:13:36.391Z,45.65
2018-12-27T05:16:17.231Z,66.62
2018-12-27T05:18:58.007Z,57.08
2018-12-27T05:21:38.635Z,66.87
2018-12-27T05:24:19.288Z,57.75
2018-12-27T05:27:00.726Z,49.58
2018-12-27T05:29:42.087Z,44.27
2018-12-27T05:32:23.524Z,61.23
2018-12-27T05:35:04.187Z,52.08
2018-12-27T05:37:45.479Z,43.95
2018-12-27T05:40:26.850Z,70.15
2018-12-27T05:43:07.598Z,51.58
2018-12-27T05:45:48.411Z,46.00
2018-12-27T05:48:29.214Z,45.83
2018-12-27T05:51:10.008Z,48.77
2018-12-27T05:53:50.711Z,48.35
2018-12-27T05:56:31.331Z,43.80
2018-12-27T05:59:11.896Z,52.23
2018-12-27T06:01:52.656Z,64.03
2018-12-27T06:04:33.927Z,46.30
2018-12-27T06:07:14.711Z,29.60
2018-12-27T06:09:56.150Z,38.43
2018-12-27T06:12:36.862Z,41.63
2018-12-27T06:15:18.411Z,44.07
2018-12-27T06:17:59.620Z,50.33
2018-12-27T06:20:40.442Z,46.18
2018-12-27T06:23:21.122Z,50.55
2018-12-27T06:26:02.703Z,60.00
2018-12-27T06:28:44.207Z,62.98
2018-12-27T06:31:24.863Z,57.17
2018-12-27T06:34:05.802Z,53.13
2018-12-27T06:36:47.378Z,58.83
2018-12-27T06:39:27.967Z,52.53
2018-12-27T06:42:09.502Z,58.97
2018-12-27T06:44:51.051Z,54.18
2018-12-27T06:47:32.650Z,54.57
2018-12-27T06:50:13.261Z,41.68
2018-12-27T06:52:54.745Z,58.58
2018-12-27T06:55:35.383Z,57.93
2018-12-27T06:58:16.328Z,50.00
2018-12-27T07:00:57.731Z,70.05
2018-12-27T07:03:38.337Z,66.30
2018-12-27T07:06:19.642Z,64.17
2018-12-27T07:09:00.386Z,65.72
2018-12-27T07:11:41.234Z,79.10
2018-12-27T07:14:22.566Z,82.37
2018-12-27T07:17:04.015Z,51.20
2018-12-27T07:19:45.347Z,62.67
2018-12-27T07:22:26.883Z,72.60
2018-12-27T07:25:07.462Z,78.67
2018-12-27T07:27:49.054Z,80.40
2018-12-27T07:30:29.695Z,57.50
2018-12-27T07:33:10.436Z,70.30
2018-12-27T07:35:51.239Z,77.62
2018-12-27T07:38:31.950Z,98.75
2018-12-27T07:41:13.224Z,69.00
2018-12-27T07:43:54.235Z,90.45
2018-12-27T07:46:35.468Z,82.80
2018-12-27T07:49:17.006Z,67.32
2018-12-27T07:51:58.151Z,73.90
2018-12-27T07:54:39.699Z,72.83
2018-12-27T07:57:20.371Z,66.92
2018-12-27T08:00:01.859Z,88.27
2018-12-27T08:02:42.652Z,79.03
2018-12-27T08:05:24.015Z,70.15
2018-12-27T08:08:05.237Z,73.72
2018-12-27T08:10:47.846Z,62.43
2018-12-27T08:13:27.443Z,79.65
2018-12-27T08:16:15.943Z,58.08
2018-12-27T08:19:04.467Z,71.20
2018-12-27T08:21:52.890Z,67.90
2018-12-27T08:24:41.371Z,73.15
2018-12-27T08:27:29.792Z,67.60
2018-12-27T08:30:18.234Z,82.88
2018-12-27T08:33:06.723Z,66.07
2018-12-27T08:35:55.171Z,65.62
2018-12-27T08:38:43.599Z,67.70
2018-12-27T08:41:32.043Z,48.98
2018-12-27T08:44:20.466Z,62.50
2018-12-27T08:47:08.916Z,83.82
2018-12-27T08:49:57.366Z,85.55
2018-12-27T08:52:45.795Z,61.68
2018-12-27T08:55:34.238Z,49.47
2018-12-27T08:58:22.667Z,43.25
2018-12-27T09:01:03.691Z,40.88
2018-12-27T09:03:44.530Z,47.80
2018-12-27T09:06:25.371Z,43.00
2018-12-27T09:09:05.911Z,36.35
2018-12-27T09:11:46.887Z,34.90
2018-12-27T09:14:27.711Z,43.08
2018-12-27T09:17:08.999Z,45.30
2018-12-27T09:19:49.976Z,53.20
2018-12-27T09:22:31.451Z,35.52
2018-12-27T09:25:12.107Z,47.23
2018-12-27T09:27:52.690Z,45.37
2018-12-27T09:30:34.179Z,34.30
2018-12-27T09:33:14.819Z,36.57
2018-12-27T09:35:55.461Z,51.90
2018-12-27T09:38:36.903Z,41.00
2018-12-27T09:41:18.391Z,41.37
2018-12-27T09:43:59.052Z,50.37
2018-12-27T09:46:39.795Z,37.90
2018-12-27T09:49:20.488Z,37.10
2018-12-27T09:52:02.871Z,42.13
2018-12-27T09:54:43.459Z,46.53
2018-12-27T09:57:24.851Z,40.73
2018-12-27T10:00:05.799Z,34.40
2018-12-27T10:02:46.963Z,43.00
2018-12-27T10:05:33.931Z,34.97
2018-12-27T10:08:10.751Z,36.77
2018-12-27T10:10:51.439Z,35.30
2018-12-27T10:13:32.356Z,44.47
2018-12-27T10:16:13.579Z,39.17
2018-12-27T10:18:54.383Z,39.47
2018-12-27T10:21:35.098Z,31.23
2018-12-27T10:24:15.935Z,31.57
2018-12-27T10:26:56.576Z,41.30
2018-12-27T10:29:37.311Z,42.33
2018-12-27T10:32:18.771Z,44.63
2018-12-27T10:35:00.290Z,45.67
2018-12-27T10:37:41.527Z,33.50
2018-12-27T10:40:21.056Z,41.77
2018-12-27T10:43:10.347Z,43.60
2018-12-27T10:45:51.888Z,36.27
2018-12-27T10:48:32.466Z,38.07
2018-12-27T10:51:13.735Z,36.70
2018-12-27T10:53:54.339Z,30.57
2018-12-27T10:56:35.027Z,28.17
2018-12-27T10:59:15.799Z,35.67
2018-12-27T11:01:56.567Z,31.33
2018-12-27T11:04:37.851Z,30.60
2018-12-27T11:07:19.299Z,37.00
2018-12-27T11:09:59.979Z,33.47
2018-12-27T11:12:40.587Z,29.17
2018-12-27T11:15:22.102Z,31.50
2018-12-27T11:18:02.904Z,28.63
2018-12-27T11:20:43.770Z,29.37
2018-12-27T11:23:25.099Z,28.93
2018-12-27T11:26:05.872Z,25.53
2018-12-27T11:28:47.131Z,30.60
2018-12-27T11:31:27.799Z,24.20
2018-12-27T11:34:09.235Z,27.67
2018-12-27T11:36:50.031Z,22.40
2018-12-27T11:39:31.607Z,24.70
2018-12-27T11:42:12.956Z,27.43
2018-12-27T11:44:54.540Z,24.00
2018-12-27T11:47:35.239Z,23.40
2018-12-27T11:50:16.591Z,21.53
2018-12-27T11:52:57.199Z,22.23
2018-12-27T11:55:37.820Z,21.07
2018-12-27T11:58:18.526Z,20.77
2018-12-27T12:01:00.075Z,21.50
2018-12-27T12:03:40.854Z,22.10
2018-12-27T12:06:21.511Z,17.70
2018-12-27T12:09:02.176Z,19.33
2018-12-27T12:11:43.647Z,18.80
2018-12-27T12:14:24.982Z,17.60
2018-12-27T12:17:06.563Z,20.00
2018-12-27T12:19:47.235Z,22.53
2018-12-27T12:22:27.871Z,17.57
2018-12-27T12:25:08.573Z,21.73
2018-12-27T12:27:49.926Z,20.77
2018-12-27T12:30:30.691Z,14.30
2018-12-27T12:33:11.396Z,18.30
2018-12-27T12:35:53.017Z,33.40
2018-12-27T12:38:33.847Z,22.83
2018-12-27T12:41:14.443Z,23.60
2018-12-27T12:43:55.735Z,27.63
2018-12-27T12:46:37.099Z,22.97
2018-12-27T12:49:18.543Z,24.00
2018-12-27T12:51:59.786Z,26.07
2018-12-27T12:54:41.236Z,23.60
2018-12-27T12:57:22.581Z,23.97
2018-12-27T13:00:03.856Z,29.07
2018-12-27T13:02:45.382Z,28.13
2018-12-27T13:05:26.075Z,28.57
2018-12-27T13:08:07.518Z,26.90
2018-12-27T13:10:48.938Z,26.70
2018-12-27T13:13:29.494Z,30.77
2018-12-27T13:16:10.168Z,26.40
2018-12-27T13:18:51.627Z,31.57
2018-12-27T13:21:32.351Z,29.10
2018-12-27T13:24:13.740Z,22.13
2018-12-27T13:26:54.495Z,21.47
2018-12-27T13:29:35.882Z,18.13
2018-12-27T13:32:16.507Z,21.83
2018-12-27T13:34:57.932Z,25.57
2018-12-27T13:37:38.540Z,28.60
2018-12-27T13:40:19.188Z,24.00
2018-12-27T13:43:00.039Z,23.87
2018-12-27T13:45:40.854Z,22.37
2018-12-27T13:48:22.234Z,23.23
2018-12-27T13:51:03.839Z,23.20
2018-12-27T13:53:44.458Z,24.83
2018-12-27T13:56:25.907Z,22.80
2018-12-27T13:59:07.183Z,17.73
2018-12-27T14:01:47.786Z,20.57
2018-12-27T14:04:29.316Z,24.60
2018-12-27T14:07:10.847Z,24.03
2018-12-27T14:09:52.564Z,17.23
2018-12-27T14:12:33.239Z,20.87
2018-12-27T14:15:14.115Z,26.30
2018-12-27T14:17:54.827Z,25.43
2018-12-27T14:20:36.399Z,19.23
2018-12-27T14:23:17.619Z,22.40
2018-12-27T14:25:58.427Z,26.27
2018-12-27T14:28:39.143Z,19.77
2018-12-27T14:31:20.580Z,19.30
2018-12-27T14:34:01.363Z,20.03
2018-12-27T14:36:41.995Z,15.77
2018-12-27T14:39:22.640Z,19.17
2018-12-27T14:42:04.135Z,21.47
2018-12-27T14:44:45.694Z,22.30
2018-12-27T14:47:26.314Z,25.73
2018-12-27T14:50:07.206Z,18.90
2018-12-27T14:52:47.916Z,24.17
2018-12-27T14:55:29.423Z,21.53
2018-12-27T14:58:10.051Z,23.47
2018-12-27T15:00:51.571Z,23.40
2018-12-27T15:03:32.994Z,22.03
2018-12-27T15:06:13.592Z,25.67
2018-12-27T15:08:54.314Z,29.40
2018-12-27T15:11:35.027Z,19.53
2018-12-27T15:14:15.791Z,21.30
2018-12-27T15:16:57.042Z,19.33
2018-12-27T15:19:37.883Z,18.10
2018-12-27T15:22:19.227Z,14.57
2018-12-27T15:24:59.848Z,15.87
2018-12-27T15:27:41.348Z,11.37
2018-12-27T15:30:22.135Z,11.27
2018-12-27T15:33:02.887Z,11.50
2018-12-27T15:35:43.543Z,13.93
2018-12-27T15:38:25.162Z,17.43
2018-12-27T15:41:05.979Z,13.90
2018-12-27T15:43:46.611Z,15.23
2018-12-27T15:46:27.440Z,17.27
2018-12-27T15:49:08.095Z,14.40
2018-12-27T15:51:49.448Z,12.50
2018-12-27T15:54:30.251Z,15.40
2018-12-27T15:57:11.847Z,15.67
2018-12-27T15:59:53.355Z,14.33
2018-12-27T16:02:34.672Z,14.60
2018-12-27T16:05:15.275Z,11.23
2018-12-27T16:07:55.948Z,16.50
2018-12-27T16:10:37.214Z,10.57
2018-12-27T16:13:21.771Z,15.93
2018-12-27T16:16:02.323Z,10.43
2018-12-27T16:18:42.891Z,10.57
2018-12-27T16:21:23.660Z,12.07
2018-12-27T16:24:04.975Z,9.90
2018-12-27T16:26:46.195Z,12.13
2018-12-27T16:29:27.437Z,15.80
2018-12-27T16:32:08.847Z,12.20
2018-12-27T16:34:49.514Z,15.90
2018-12-27T16:37:30.803Z,10.50
2018-12-27T16:40:12.352Z,11.40
2018-12-27T16:42:53.104Z,12.17
2018-12-27T16:45:34.571Z,13.67
2018-12-27T16:48:16.072Z,11.77
2018-12-27T16:50:57.370Z,9.27
2018-12-27T16:53:38.079Z,12.87
2018-12-27T16:56:18.777Z,14.33
2018-12-27T16:58:59.487Z,14.50
2018-12-27T17:01:40.207Z,15.07
2018-12-27T17:04:21.654Z,12.17
2018-12-27T17:07:02.944Z,11.75
2018-12-27T17:09:44.449Z,9.70
2018-12-27T17:12:25.823Z,18.10
2018-12-27T17:15:06.718Z,18.27
2018-12-27T17:17:47.338Z,10.38
2018-12-27T17:20:28.058Z,15.17
2018-12-27T17:23:08.805Z,11.80
2018-12-27T17:25:49.704Z,10.93
2018-12-27T17:28:31.014Z,13.93
2018-12-27T17:31:11.703Z,10.33
2018-12-27T17:33:52.405Z,13.27
2018-12-27T17:36:33.132Z,10.77
2018-12-27T17:39:13.858Z,9.95
2018-12-27T17:41:55.279Z,15.30
2018-12-27T17:44:36.816Z,16.90
2018-12-27T17:47:21.132Z,14.63
2018-12-27T17:50:03.612Z,13.13
2018-12-27T17:52:49.014Z,22.05
2018-12-27T17:55:30.251Z,19.93
2018-12-27T17:58:10.835Z,18.32
2018-12-27T18:00:51.535Z,12.88
2018-12-27T18:03:32.142Z,14.40
2018-12-27T18:06:12.939Z,19.07
2018-12-27T18:08:53.618Z,24.10
2018-12-27T18:11:34.286Z,21.63
2018-12-27T18:14:15.759Z,18.85
2018-12-27T18:16:57.142Z,17.40
2018-12-27T18:19:37.754Z,20.70
2018-12-27T18:22:19.275Z,17.23
2018-12-27T18:25:00.587Z,15.28
2018-12-27T18:27:41.271Z,19.93
2018-12-27T18:30:22.010Z,18.47
2018-12-27T18:33:03.503Z,17.07
2018-12-27T18:35:44.943Z,17.07
2018-12-27T18:38:26.403Z,17.30
2018-12-27T18:41:07.770Z,16.12
2018-12-27T18:43:48.459Z,20.60
2018-12-27T18:46:29.138Z,23.35
2018-12-27T18:49:10.438Z,24.80
2018-12-27T18:51:51.848Z,17.85
2018-12-27T18:54:33.347Z,13.32
2018-12-27T18:57:14.743Z,19.98
2018-12-27T18:59:55.480Z,18.50
2018-12-27T19:02:41.892Z,26.68
2018-12-27T19:05:18.931Z,24.73
2018-12-27T19:07:59.707Z,18.87
2018-12-27T19:10:40.583Z,23.77
2018-12-27T19:13:22.159Z,26.77
2018-12-27T19:16:03.551Z,25.05
2018-12-27T19:18:44.291Z,23.87
2018-12-27T19:21:25.791Z,15.05
2018-12-27T19:24:06.578Z,17.90
2018-12-27T19:26:47.246Z,22.37
2018-12-27T19:29:28.728Z,26.07
2018-12-27T19:32:10.228Z,19.20
2018-12-27T19:34:51.718Z,19.85
2018-12-27T19:37:32.491Z,20.30
2018-12-27T19:40:13.842Z,16.67
2018-12-27T19:42:55.314Z,34.37
2018-12-27T19:45:36.771Z,23.90
2018-12-27T19:48:17.538Z,22.07
2018-12-27T19:50:59.112Z,26.25
2018-12-27T19:53:40.614Z,22.52
2018-12-27T19:56:21.177Z,16.10
2018-12-27T19:59:02.666Z,17.97
2018-12-27T20:01:43.283Z,14.50
2018-12-27T20:04:23.915Z,15.00
2018-12-27T20:07:05.443Z,28.77
2018-12-27T20:09:46.131Z,21.82
2018-12-27T20:12:26.750Z,24.30
2018-12-27T20:15:07.886Z,21.85
2018-12-27T20:17:48.579Z,15.63
2018-12-27T20:20:30.174Z,22.60
2018-12-27T20:23:11.187Z,23.83
2018-12-27T20:25:52.146Z,16.93
2018-12-27T20:28:33.252Z,21.95
2018-12-27T20:31:14.212Z,25.00
2018-12-27T20:33:54.955Z,20.65
2018-12-27T20:36:35.927Z,19.37
2018-12-27T20:39:17.327Z,19.67
2018-12-27T20:41:58.567Z,19.50
2018-12-27T20:44:39.879Z,19.55
2018-12-27T20:47:20.662Z,21.65
2018-12-27T20:50:03.291Z,21.02
2018-12-27T20:52:44.579Z,21.23
2018-12-27T20:55:26.171Z,20.68
2018-12-27T20:58:06.707Z,21.80
2018-12-27T21:00:47.372Z,16.75
2018-12-27T21:03:28.143Z,22.87
2018-12-27T21:06:09.572Z,27.15
2018-12-27T21:08:51.178Z,26.20
2018-12-27T21:11:32.563Z,29.70
2018-12-27T21:14:13.975Z,28.47
2018-12-27T21:16:54.585Z,20.75
2018-12-27T21:19:35.326Z,25.95
2018-12-27T21:22:16.035Z,18.77
2018-12-27T21:24:58.117Z,48.55
2018-12-27T21:27:38.943Z,28.98
2018-12-27T21:30:20.372Z,29.98
2018-12-27T21:33:01.923Z,33.15
2018-12-27T21:35:43.458Z,37.28
2018-12-27T21:38:24.839Z,31.55
2018-12-27T21:41:05.612Z,25.55
2018-12-27T21:43:46.328Z,23.27
2018-12-27T21:46:27.792Z,16.65
2018-12-27T21:49:08.434Z,26.93
2018-12-27T21:51:49.752Z,25.65
2018-12-27T21:54:30.506Z,28.50
2018-12-27T21:57:11.179Z,26.70
2018-12-27T21:59:52.699Z,24.45
2018-12-27T22:02:33.513Z,28.75
2018-12-27T22:05:14.199Z,18.55
2018-12-27T22:07:54.946Z,23.70
2018-12-27T22:10:36.328Z,18.10
2018-12-27T22:13:17.497Z,20.30
2018-12-27T22:15:59.119Z,19.87
2018-12-27T22:18:40.427Z,30.45
2018-12-27T22:21:21.887Z,26.42
2018-12-27T22:24:02.621Z,21.20
2018-12-27T22:26:43.239Z,35.35
2018-12-27T22:29:24.063Z,31.25
2018-12-27T22:32:04.818Z,17.90
2018-12-27T22:34:45.487Z,18.45
2018-12-27T22:37:27.107Z,20.75
2018-12-27T22:40:08.427Z,20.20
2018-12-27T22:42:49.109Z,18.70
2018-12-27T22:45:29.772Z,18.40
2018-12-27T22:48:10.511Z,18.98
2018-12-27T22:50:50.071Z,15.58
2018-12-27T22:53:38.515Z,23.25
2018-12-27T22:56:26.934Z,20.08
2018-12-27T22:59:15.374Z,19.45
2018-12-27T23:01:56.176Z,18.55
2018-12-27T23:04:37.779Z,24.47
2018-12-27T23:07:19.223Z,26.33
2018-12-27T23:10:00.703Z,25.92
2018-12-27T23:12:41.316Z,24.55
2018-12-27T23:15:22.219Z,29.07
2018-12-27T23:18:02.889Z,25.12
2018-12-27T23:20:44.491Z,20.30
2018-12-27T23:23:25.059Z,27.60
2018-12-27T23:26:05.784Z,22.40
2018-12-27T23:28:46.391Z,22.95
2018-12-27T23:31:28.045Z,37.75
2018-12-27T23:34:09.258Z,31.12
2018-12-27T23:36:50.782Z,43.30
2018-12-27T23:39:31.559Z,28.98
2018-12-27T23:42:11.039Z,35.98
2018-12-27T23:44:59.482Z,28.07
2018-12-27T23:47:47.907Z,26.12
2018-12-27T23:50:36.347Z,41.75
2018-12-27T23:53:24.795Z,35.25
2018-12-27T23:56:13.238Z,28.50
2018-12-27T23:59:01.672Z,24.52
